ADDS METAR Data INFO
IDs: Format: Raw Decoded Include TAF

Data at: 0127 UTC 23 Nov 2017

METAR for:PAVC (King Cove Arpt, AK, US)
Text:PAVC 230056Z AUTO 27024G38KT 10SM SCT014 BKN020 OVC029 06/03 A2951 RMK AO2 PK WND 27044/0040 RAE52 SLP998 P0002 T00560033
Temperature: 5.6°C ( 42°F)
Dewpoint: 3.3°C ( 38°F) [RH = 85%]
Pressure (altimeter):29.51 inches Hg ( 999.4 mb) [Sea level pressure: 999.8 mb]
Winds:from the W (270 degrees) at 28 MPH (24 knots; 12.3 m/s) gusting to 44 MPH (38 knots; 19.5 m/s)
Visibility:10 or more sm (16+ km)
Ceiling:2000 feet AGL
Clouds: scattered clouds at 1400 feet AGL, broken clouds at 2000 feet AGL, overcast cloud deck at 2900 feet AGL
QC Flag:automated observation with no human augmentation
Text:PAVC 230048Z AUTO 25030G44KT 4SM -RA BR SCT014 BKN020 OVC025 06/04 A2951 RMK AO2 PK WND 27044/0040 P0002
Temperature: 6.0°C ( 43°F)
Dewpoint: 4.0°C ( 39°F) [RH = 87%]
Pressure (altimeter):29.51 inches Hg ( 999.4 mb)
Winds:from the WSW (250 degrees) at 34 MPH (30 knots; 15.4 m/s) gusting to 51 MPH (44 knots; 22.6 m/s)
Visibility: 4 sm ( 6 km)
Ceiling:2000 feet AGL
Clouds: scattered clouds at 1400 feet AGL, broken clouds at 2000 feet AGL, overcast cloud deck at 2500 feet AGL
Weather:-RA BR (light rain, mist)
QC Flag:automated observation with no human augmentation
Text:PAVC 230045Z AUTO 26033G44KT 2 1/2SM -RA BR BKN014 BKN020 OVC025 06/04 A2951 RMK AO2 PK WND 27044/0040 P0002
Temperature: 6.0°C ( 43°F)
Dewpoint: 4.0°C ( 39°F) [RH = 87%]
Pressure (altimeter):29.51 inches Hg ( 999.4 mb)
Winds:from the W (260 degrees) at 38 MPH (33 knots; 17.0 m/s) gusting to 51 MPH (44 knots; 22.6 m/s)
Visibility: 2.50 sm ( 4.02 km)
Ceiling:1400 feet AGL
Clouds: broken clouds at 1400 feet AGL, broken clouds at 2000 feet AGL, overcast cloud deck at 2500 feet AGL
Weather:-RA BR (light rain, mist)
QC Flag:automated observation with no human augmentation
Text:PAVC 230041Z AUTO 27036G44KT 1 3/4SM -RA BR SCT012 BKN016 OVC025 06/04 A2951 RMK AO2 PK WND 27044/0040 P0002
Temperature: 6.0°C ( 43°F)
Dewpoint: 4.0°C ( 39°F) [RH = 87%]
Pressure (altimeter):29.51 inches Hg ( 999.4 mb)
Winds:from the W (270 degrees) at 41 MPH (36 knots; 18.5 m/s) gusting to 51 MPH (44 knots; 22.6 m/s)
Visibility: 1.75 sm ( 2.82 km)
Ceiling:1600 feet AGL
Clouds: scattered clouds at 1200 feet AGL, broken clouds at 1600 feet AGL, overcast cloud deck at 2500 feet AGL
Weather:-RA BR (light rain, mist)
QC Flag:automated observation with no human augmentation
Text:PAVC 230018Z AUTO 27031G44KT 4SM -RA BR FEW009 BKN017 OVC030 07/05 A2950 RMK AO2 PK WND 28044/0015 P0001
Temperature: 7.0°C ( 45°F)
Dewpoint: 5.0°C ( 41°F) [RH = 87%]
Pressure (altimeter):29.50 inches Hg ( 999.1 mb)
Winds:from the W (270 degrees) at 36 MPH (31 knots; 15.9 m/s) gusting to 51 MPH (44 knots; 22.6 m/s)
Visibility: 4 sm ( 6 km)
Ceiling:1700 feet AGL
Clouds: few clouds at 900 feet AGL, broken clouds at 1700 feet AGL, overcast cloud deck at 3000 feet AGL
Weather:-RA BR (light rain, mist)
QC Flag:automated observation with no human augmentation
Text:PAVC 230009Z AUTO 27032G44KT 2SM -RA BR BKN018 OVC023 07/06 A2950 RMK AO2 PK WND 27044/0004 P0001
Temperature: 7.0°C ( 45°F)
Dewpoint: 6.0°C ( 43°F) [RH = 93%]
Pressure (altimeter):29.50 inches Hg ( 999.1 mb)
Winds:from the W (270 degrees) at 37 MPH (32 knots; 16.5 m/s) gusting to 51 MPH (44 knots; 22.6 m/s)
Visibility: 2.00 sm ( 3.22 km)
Ceiling:1800 feet AGL
Clouds: broken clouds at 1800 feet AGL, overcast cloud deck at 2300 feet AGL
Weather:-RA BR (light rain, mist)
QC Flag:automated observation with no human augmentation
Text:PAVC 222356Z AUTO 27026G35KT 5SM -RA BR BKN018 OVC022 08/07 A2950 RMK AO2 PK WND 26035/2356 SLP994 P0000 60028 T00780067 10078 20044 56040
Temperature: 7.8°C ( 46°F)
Dewpoint: 6.7°C ( 44°F) [RH = 93%]
Pressure (altimeter):29.50 inches Hg ( 999.1 mb) [Sea level pressure: 999.4 mb]
Winds:from the W (270 degrees) at 30 MPH (26 knots; 13.4 m/s) gusting to 40 MPH (35 knots; 18.0 m/s)
Visibility: 5 sm ( 8 km)
Ceiling:1800 feet AGL
Clouds: broken clouds at 1800 feet AGL, overcast cloud deck at 2200 feet AGL
Weather:-RA BR (light rain, mist)
QC Flag:automated observation with no human augmentation
Text:PAVC 222348Z AUTO 26017KT 4SM -RA BR BKN016 OVC023 07/07 A2950 RMK AO2 P0000
Temperature: 7.0°C ( 45°F)
Dewpoint: 7.0°C ( 45°F) [RH = 100%]
Pressure (altimeter):29.50 inches Hg ( 999.1 mb)
Winds:from the W (260 degrees) at 20 MPH (17 knots; 8.7 m/s)
Visibility: 4 sm ( 6 km)
Ceiling:1600 feet AGL
Clouds: broken clouds at 1600 feet AGL, overcast cloud deck at 2300 feet AGL
Weather:-RA BR (light rain, mist)
QC Flag:automated observation with no human augmentation
Text:PAVC 222323Z AUTO 23010G15KT 10SM -RA OVC013 07/06 A2952 RMK AO2 P0000
Temperature: 7.0°C ( 45°F)
Dewpoint: 6.0°C ( 43°F) [RH = 93%]
Pressure (altimeter):29.52 inches Hg ( 999.7 mb)
Winds:from the SW (230 degrees) at 12 MPH (10 knots; 5.1 m/s) gusting to 17 MPH (15 knots; 7.7 m/s)
Visibility:10 or more sm (16+ km)
Ceiling:1300 feet AGL
Clouds: overcast cloud deck at 1300 feet AGL
Weather:-RA (light rain)
QC Flag:automated observation with no human augmentation
Text:PAVC 222256Z AUTO 24008KT 9SM -RA OVC006 07/06 A2953 RMK AO2 CIG 003V009 SLP006 P0005 T00670056
Temperature: 6.7°C ( 44°F)
Dewpoint: 5.6°C ( 42°F) [RH = 93%]
Pressure (altimeter):29.53 inches Hg (1000.1 mb) [Sea level pressure: 1000.6 mb]
Winds:from the WSW (240 degrees) at 9 MPH (8 knots; 4.1 m/s)
Visibility: 9 sm ( 14 km)
Ceiling:600 feet AGL
Clouds: overcast cloud deck at 600 feet AGL
Weather:-RA (light rain)
QC Flag:automated observation with no human augmentation
Text:PAVC 222254Z AUTO 24006KT 7SM -RA BKN004 OVC008 07/06 A2953 RMK AO2 CIG 003V007 P0005
Temperature: 7.0°C ( 45°F)
Dewpoint: 6.0°C ( 43°F) [RH = 93%]
Pressure (altimeter):29.53 inches Hg (1000.1 mb)
Winds:from the WSW (240 degrees) at 7 MPH (6 knots; 3.1 m/s)
Visibility: 7 sm ( 11 km)
Ceiling:400 feet AGL
Clouds: broken clouds at 400 feet AGL, overcast cloud deck at 800 feet AGL
Weather:-RA (light rain)
QC Flag:automated observation with no human augmentation
Text:PAVC 222232Z AUTO 23010G18KT 2SM -RA BR OVC004 06/06 A2956 RMK AO2 PRESFR P0003
Temperature: 6.0°C ( 43°F)
Dewpoint: 6.0°C ( 43°F) [RH = 100%]
Pressure (altimeter):29.56 inches Hg (1001.1 mb)
Winds:from the SW (230 degrees) at 12 MPH (10 knots; 5.1 m/s) gusting to 21 MPH (18 knots; 9.3 m/s)
Visibility: 2.00 sm ( 3.22 km)
Ceiling:400 feet AGL
Clouds: overcast cloud deck at 400 feet AGL
Weather:-RA BR (light rain, mist)
QC Flag:automated observation with no human augmentation
Text:PAVC 222216Z AUTO 23012G18KT 190V260 1 1/2SM -RA BR OVC006 06/05 A2958 RMK AO2 PRESFR P0002
Temperature: 6.0°C ( 43°F)
Dewpoint: 5.0°C ( 41°F) [RH = 93%]
Pressure (altimeter):29.58 inches Hg (1001.8 mb)
Winds:from the SW (230 degrees) at 14 MPH (12 knots; 6.2 m/s) gusting to 21 MPH (18 knots; 9.3 m/s)
Visibility: 1.50 sm ( 2.41 km)
Ceiling:600 feet AGL
Clouds: overcast cloud deck at 600 feet AGL
Weather:-RA BR (light rain, mist)
QC Flag:automated observation with no human augmentation
Text:PAVC 222156Z AUTO 25010G17KT 2 1/2SM -RA BR OVC006 06/04 A2962 RMK AO2 PRESFR SLP035 P0010 T00560044
Temperature: 5.6°C ( 42°F)
Dewpoint: 4.4°C ( 40°F) [RH = 92%]
Pressure (altimeter):29.62 inches Hg (1003.1 mb) [Sea level pressure: 1003.5 mb]
Winds:from the WSW (250 degrees) at 12 MPH (10 knots; 5.1 m/s) gusting to 20 MPH (17 knots; 8.7 m/s)
Visibility: 2.50 sm ( 4.02 km)
Ceiling:600 feet AGL
Clouds: overcast cloud deck at 600 feet AGL
Weather:-RA BR (light rain, mist)
QC Flag:automated observation with no human augmentation
Text:PAVC 222115Z AUTO 26006G14KT 5SM RA BR BKN008 OVC013 05/04 A2968 RMK AO2 PRESFR P0004
Temperature: 5.0°C ( 41°F)
Dewpoint: 4.0°C ( 39°F) [RH = 93%]
Pressure (altimeter):29.68 inches Hg (1005.2 mb)
Winds:from the W (260 degrees) at 7 MPH (6 knots; 3.1 m/s) gusting to 16 MPH (14 knots; 7.2 m/s)
Visibility: 5 sm ( 8 km)
Ceiling:800 feet AGL
Clouds: broken clouds at 800 feet AGL, overcast cloud deck at 1300 feet AGL
Weather:RA BR (moderate rain, mist)
QC Flag:automated observation with no human augmentation
Text:PAVC 222056Z AUTO 21010G18KT 170V240 6SM -RA BR BKN010 OVC013 04/03 A2971 RMK AO2 PK WND 18032/1957 CIG 008V012 SLP066 P0007 60013 T00440033 56064
Temperature: 4.4°C ( 40°F)
Dewpoint: 3.3°C ( 38°F) [RH = 93%]
Pressure (altimeter):29.71 inches Hg (1006.2 mb) [Sea level pressure: 1006.6 mb]
Winds:from the SSW (210 degrees) at 12 MPH (10 knots; 5.1 m/s) gusting to 21 MPH (18 knots; 9.3 m/s)
Visibility: 6 sm ( 10 km)
Ceiling:1000 feet AGL
Clouds: broken clouds at 1000 feet AGL, overcast cloud deck at 1300 feet AGL
Weather:-RA BR (light rain, mist)
QC Flag:automated observation with no human augmentation
Text:PAVC 222033Z AUTO 24014G28KT 5SM RA BR OVC014 04/03 A2973 RMK AO2 PK WND 18032/1957 P0005
Temperature: 4.0°C ( 39°F)
Dewpoint: 3.0°C ( 37°F) [RH = 93%]
Pressure (altimeter):29.73 inches Hg (1006.9 mb)
Winds:from the WSW (240 degrees) at 16 MPH (14 knots; 7.2 m/s) gusting to 32 MPH (28 knots; 14.4 m/s)
Visibility: 5 sm ( 8 km)
Ceiling:1400 feet AGL
Clouds: overcast cloud deck at 1400 feet AGL
Weather:RA BR (moderate rain, mist)
QC Flag:automated observation with no human augmentation
Text:PAVC 221956Z AUTO 18012G30KT 120V240 3SM RA OVC018 04/02 A2977 RMK AO2 PK WND 21041/1940 SLP087 P0006 T00440017
Temperature: 4.4°C ( 40°F)
Dewpoint: 1.7°C ( 35°F) [RH = 83%]
Pressure (altimeter):29.77 inches Hg (1008.2 mb) [Sea level pressure: 1008.7 mb]
Winds:from the S (180 degrees) at 14 MPH (12 knots; 6.2 m/s) gusting to 34 MPH (30 knots; 15.4 m/s)
Visibility: 3 sm ( 5 km)
Ceiling:1800 feet AGL
Clouds: overcast cloud deck at 1800 feet AGL
Weather:RA (moderate rain)
QC Flag:automated observation with no human augmentation

TAF for:PAVC (King Cove Arpt, AK, US)
Text:No data found